Time;durP1;ratioP1;P1;durP2;ratioP2;P2;SDS_P1;SDS_P2;PMS_P1;PMS_P2;Temp;Humidity;BMP_temperature;BMP_pressure;BME280_temperature;BME280_humidity;BME280_pressure;Samples;Min_cycle;Max_cycle;Signal;HPM_P1;HPM_P2
2022/03/29 00:01:58;;;;;;;9.85;4.72;;;9.60;71.40;;;;;;6156289;23;20017;-94
2022/03/29 00:04:25;;;;;;;10.95;4.95;;;9.60;71.30;;;;;;6153937;23;20027;-95
2022/03/29 00:06:54;;;;;;;10.20;5.32;;;9.50;71.20;;;;;;6154363;23;20076;-95
2022/03/29 00:09:21;;;;;;;13.75;5.40;;;9.50;71.50;;;;;;6180770;23;20025;-94
2022/03/29 00:11:49;;;;;;;13.85;6.13;;;9.50;71.40;;;;;;6155436;23;20020;-95
2022/03/29 00:14:17;;;;;;;11.95;4.80;;;9.50;71.50;;;;;;6155631;23;20021;-95
2022/03/29 00:16:45;;;;;;;9.77;5.28;;;9.40;71.70;;;;;;6154938;23;20079;-94
2022/03/29 00:19:13;;;;;;;10.40;4.72;;;9.40;71.70;;;;;;6156326;23;20021;-93
2022/03/29 00:21:40;;;;;;;12.05;5.43;;;9.30;72.00;;;;;;6155459;23;20438;-95
2022/03/29 00:24:08;;;;;;;15.00;5.22;;;9.30;72.50;;;;;;6156114;23;20059;-94
2022/03/29 00:26:36;;;;;;;14.05;5.10;;;9.20;72.40;;;;;;6156383;23;20021;-95
2022/03/29 00:29:03;;;;;;;10.90;5.40;;;9.20;72.50;;;;;;6179425;23;20048;-95
2022/03/29 00:31:31;;;;;;;15.00;5.18;;;9.20;72.50;;;;;;6155179;23;20610;-95
2022/03/29 00:33:58;;;;;;;11.88;5.22;;;9.10;72.70;;;;;;6130946;23;20017;-95
2022/03/29 00:36:27;;;;;;;13.82;5.30;;;9.10;72.80;;;;;;6155075;23;20076;-95
2022/03/29 00:38:54;;;;;;;11.57;5.03;;;9.10;72.60;;;;;;6155258;23;20108;-96
2022/03/29 00:41:22;;;;;;;13.52;4.82;;;9.00;72.50;;;;;;6147605;23;20021;-96
2022/03/29 00:43:49;;;;;;;14.63;5.85;;;9.10;72.50;;;;;;6150667;23;20088;-95
2022/03/29 00:46:16;;;;;;;14.93;5.85;;;9.00;72.70;;;;;;6155424;23;20021;-95
2022/03/29 00:48:43;;;;;;;11.43;5.10;;;9.00;72.70;;;;;;6129669;23;20032;-95
2022/03/29 00:51:11;;;;;;;13.05;5.63;;;8.90;72.90;;;;;;6155275;23;20025;-95
2022/03/29 00:53:38;;;;;;;13.50;5.18;;;8.90;73.10;;;;;;6153604;23;20518;-95
2022/03/29 00:56:06;;;;;;;13.40;5.30;;;8.90;73.20;;;;;;6149550;23;20021;-96
2022/03/29 00:58:34;;;;;;;19.48;6.03;;;8.80;73.40;;;;;;6148869;23;20021;-96
2022/03/29 01:01:02;;;;;;;12.25;4.72;;;8.80;73.30;;;;;;6149277;23;20025;-96
2022/03/29 01:03:30;;;;;;;13.93;6.32;;;8.80;73.40;;;;;;6149101;23;20080;-95
2022/03/29 01:05:57;;;;;;;14.55;5.60;;;8.80;73.40;;;;;;6150052;23;20096;-95
2022/03/29 01:08:25;;;;;;;13.63;6.22;;;8.70;73.40;;;;;;6154271;23;20029;-95
2022/03/29 01:10:53;;;;;;;12.93;6.00;;;8.70;73.20;;;;;;6155319;23;20031;-96
2022/03/29 01:13:21;;;;;;;16.15;6.28;;;8.70;73.30;;;;;;6179433;23;20356;-95
2022/03/29 01:15:50;;;;;;;17.10;6.32;;;8.70;73.50;;;;;;6155618;23;20029;-95
2022/03/29 01:18:19;;;;;;;13.18;6.25;;;8.60;73.50;;;;;;6155760;23;20045;-95
2022/03/29 01:20:54;;;;;;;12.98;5.70;;;8.60;73.60;;;;;;6151419;23;20398;-95
2022/03/29 01:23:21;;;;;;;12.07;5.43;;;8.50;73.80;;;;;;6151148;23;20020;-96
2022/03/29 01:25:50;;;;;;;13.90;5.72;;;8.50;73.80;;;;;;6154160;23;20013;-91
2022/03/29 01:28:22;;;;;;;12.82;6.30;;;8.40;73.70;;;;;;6150310;23;20025;-96
2022/03/29 01:30:53;;;;;;;16.15;6.45;;;8.40;73.90;;;;;;6151257;23;20012;-95
2022/03/29 01:33:21;;;;;;;13.35;5.43;;;8.40;74.00;;;;;;6152206;23;20048;-96
2022/03/29 01:35:49;;;;;;;12.02;4.93;;;8.30;74.00;;;;;;6153357;23;20035;-95
2022/03/29 01:38:16;;;;;;;14.93;6.10;;;8.30;74.30;;;;;;6155135;23;20072;-94
2022/03/29 01:40:44;;;;;;;14.02;6.15;;;8.30;74.40;;;;;;6154632;23;20025;-94
2022/03/29 01:43:11;;;;;;;14.02;6.50;;;8.30;74.20;;;;;;6155709;23;20013;-95
2022/03/29 01:45:42;;;;;;;18.30;6.82;;;8.20;74.00;;;;;;6130095;23;20021;-95
2022/03/29 01:48:09;;;;;;;15.73;6.32;;;8.20;73.80;;;;;;6156422;23;20021;-95
2022/03/29 01:50:38;;;;;;;15.80;5.85;;;8.20;74.00;;;;;;6129984;23;20028;-96
2022/03/29 01:53:05;;;;;;;13.82;5.75;;;8.20;73.90;;;;;;6156312;23;20021;-96
2022/03/29 01:55:32;;;;;;;14.18;6.60;;;8.10;73.80;;;;;;6154624;23;20048;-96
2022/03/29 01:57:59;;;;;;;17.90;6.45;;;8.10;74.20;;;;;;6181882;23;20024;-95
2022/03/29 02:00:34;;;;;;;20.02;6.53;;;8.10;74.30;;;;;;6180005;23;20013;-95
2022/03/29 02:03:05;;;;;;;15.75;6.47;;;8.10;74.40;;;;;;6156224;23;20087;-95
2022/03/29 02:05:33;;;;;;;12.60;5.72;;;8.00;74.50;;;;;;6154243;23;20403;-96
2022/03/29 02:08:01;;;;;;;19.38;6.97;;;8.00;74.60;;;;;;6154876;23;20025;-95
2022/03/29 02:10:28;;;;;;;31.65;7.72;;;8.00;74.40;;;;;;6155836;23;20044;-96
2022/03/29 02:12:56;;;;;;;16.60;6.70;;;7.90;74.50;;;;;;6154200;23;20048;-96
2022/03/29 02:15:24;;;;;;;14.15;6.18;;;7.90;74.70;;;;;;6154871;23;20622;-96
2022/03/29 02:17:52;;;;;;;19.17;7.35;;;7.90;74.70;;;;;;6155612;23;20116;-95
2022/03/29 02:20:21;;;;;;;20.27;7.10;;;7.80;74.80;;;;;;6180354;23;20092;-96
2022/03/29 02:22:49;;;;;;;16.63;7.05;;;7.80;74.80;;;;;;6154481;23;20029;-95
2022/03/29 02:25:16;;;;;;;23.02;7.82;;;7.80;75.10;;;;;;6156315;23;20155;-95
2022/03/29 02:27:45;;;;;;;14.10;6.25;;;7.70;75.20;;;;;;6154472;23;20539;-96
2022/03/29 02:30:14;;;;;;;16.25;7.32;;;7.70;75.40;;;;;;6155699;23;20352;-95
2022/03/29 02:32:42;;;;;;;21.42;7.50;;;7.70;75.10;;;;;;6154563;23;20111;-95
2022/03/29 02:35:10;;;;;;;16.00;6.43;;;7.70;75.50;;;;;;6156154;23;20313;-95
2022/03/29 02:37:37;;;;;;;15.10;6.40;;;7.60;75.50;;;;;;6155217;23;20381;-96
2022/03/29 02:40:06;;;;;;;19.27;6.72;;;7.60;75.70;;;;;;6154899;23;20025;-95
2022/03/29 02:42:43;;;;;;;20.00;6.40;;;7.50;75.40;;;;;;6132634;23;20021;-95
2022/03/29 02:45:15;;;;;;;17.00;6.95;;;7.50;75.50;;;;;;6181102;23;20132;-96
2022/03/29 02:47:48;;;;;;;21.92;8.85;;;7.50;75.50;;;;;;6154779;23;20491;-94
2022/03/29 02:50:16;;;;;;;22.15;9.38;;;7.50;75.30;;;;;;6131869;23;20204;-95
2022/03/29 02:52:46;;;;;;;27.17;9.93;;;7.50;75.40;;;;;;6153062;23;20025;-95
2022/03/29 02:55:14;;;;;;;27.63;10.30;;;7.50;75.50;;;;;;6156068;23;20017;-95
2022/03/29 02:57:43;;;;;;;24.73;9.60;;;7.40;75.50;;;;;;6155364;23;20029;-95
2022/03/29 03:00:15;;;;;;;29.10;10.73;;;7.40;75.50;;;;;;6130080;23;20104;-96
2022/03/29 03:02:44;;;;;;;27.05;10.57;;;7.40;75.70;;;;;;6155082;23;20025;-96
2022/03/29 03:05:12;;;;;;;32.38;11.45;;;7.40;75.80;;;;;;6155795;23;20028;-95
2022/03/29 03:07:43;;;;;;;29.83;10.98;;;7.30;75.70;;;;;;6154238;23;20068;-95
2022/03/29 03:10:12;;;;;;;28.80;11.07;;;7.30;76.10;;;;;;6128389;23;20028;-96
2022/03/29 03:12:42;;;;;;;22.00;8.27;;;7.20;76.30;;;;;;6153927;23;20242;-95
2022/03/29 03:15:11;;;;;;;15.23;7.35;;;7.20;75.90;;;;;;6155678;23;20029;-96
2022/03/29 03:17:41;;;;;;;21.27;6.97;;;7.20;75.50;;;;;;6156017;23;20036;-95
2022/03/29 03:20:09;;;;;;;21.27;7.03;;;7.20;75.50;;;;;;6157261;23;20081;-95
2022/03/29 03:22:40;;;;;;;15.05;6.57;;;7.10;75.90;;;;;;6156640;23;20091;-95
2022/03/29 03:25:08;;;;;;;15.93;5.80;;;7.10;75.50;;;;;;6156849;23;20021;-94
2022/03/29 03:27:40;;;;;;;20.80;6.40;;;7.10;75.60;;;;;;6156353;23;20041;-96
2022/03/29 03:30:11;;;;;;;14.30;6.43;;;7.10;75.60;;;;;;6156934;23;20167;-96
2022/03/29 03:32:40;;;;;;;15.23;6.97;;;7.00;75.60;;;;;;6156339;23;20096;-95
2022/03/29 03:35:07;;;;;;;16.77;7.03;;;7.00;75.90;;;;;;6156884;23;20770;-94
2022/03/29 03:37:35;;;;;;;17.75;7.70;;;6.90;75.80;;;;;;6156997;23;20036;-95
2022/03/29 03:40:04;;;;;;;16.85;7.07;;;6.90;75.90;;;;;;6156464;23;20047;-96
2022/03/29 03:42:31;;;;;;;18.17;7.18;;;7.00;75.70;;;;;;6155014;23;20029;-96
2022/03/29 03:45:03;;;;;;;17.05;7.70;;;6.90;75.70;;;;;;6156873;23;20339;-95
2022/03/29 03:47:31;;;;;;;15.95;8.13;;;6.90;75.80;;;;;;6155500;23;20024;-94
2022/03/29 03:49:59;;;;;;;18.10;7.53;;;6.90;75.60;;;;;;6156602;23;20491;-95
2022/03/29 03:52:27;;;;;;;19.88;8.80;;;6.90;75.80;;;;;;6155801;23;20033;-95
2022/03/29 03:54:56;;;;;;;18.80;8.30;;;6.80;76.20;;;;;;6156662;23;20021;-96
2022/03/29 03:57:23;;;;;;;18.70;8.75;;;6.80;76.10;;;;;;6156153;23;20036;-95
2022/03/29 03:59:55;;;;;;;19.77;8.90;;;6.80;76.10;;;;;;6156324;23;20104;-95
2022/03/29 04:02:23;;;;;;;;;;;6.70;76.20;;;;;;6181505;23;20045;-96
2022/03/29 04:04:50;;;;;;;17.50;8.27;;;6.70;76.20;;;;;;6181163;23;19938;-96
2022/03/29 04:07:18;;;;;;;33.13;8.63;;;6.70;76.60;;;;;;6151994;23;20044;-95
2022/03/29 04:09:45;;;;;;;16.88;8.00;;;6.60;76.80;;;;;;6146809;23;20029;-95
2022/03/29 04:12:15;;;;;;;18.98;8.13;;;6.60;76.60;;;;;;6150664;23;20021;-95
2022/03/29 04:14:45;;;;;;;16.02;7.13;;;6.60;76.60;;;;;;6151429;23;20137;-95
2022/03/29 04:17:13;;;;;;;17.88;8.32;;;6.60;76.50;;;;;;6155731;23;20017;-95
2022/03/29 04:19:43;;;;;;;17.13;7.80;;;6.60;76.70;;;;;;6154481;23;20112;-95
2022/03/29 04:22:11;;;;;;;19.40;7.32;;;6.50;76.90;;;;;;6179633;23;20099;-96
2022/03/29 04:24:39;;;;;;;22.65;6.80;;;6.50;77.50;;;;;;6152372;23;20021;-95
2022/03/29 04:27:06;;;;;;;18.67;7.10;;;6.40;77.40;;;;;;6152244;23;20021;-95
2022/03/29 04:29:34;;;;;;;21.33;7.32;;;6.40;77.40;;;;;;6151053;23;20032;-95
2022/03/29 04:32:09;;;;;;;17.85;6.68;;;6.40;77.00;;;;;;6154268;23;20017;-96
2022/03/29 04:34:36;;;;;;;20.17;8.15;;;6.40;77.20;;;;;;6153937;23;20077;-93
2022/03/29 04:37:04;;;;;;;18.00;7.88;;;6.40;77.00;;;;;;6155626;23;20024;-95
2022/03/29 04:39:34;;;;;;;16.05;7.00;;;6.40;77.10;;;;;;6154479;23;20345;-96
2022/03/29 04:42:01;;;;;;;20.70;8.32;;;6.40;77.50;;;;;;6156376;23;20025;-95
2022/03/29 04:44:37;;;;;;;;;;;6.40;77.60;;;;;;6156624;23;20024;-95
2022/03/29 04:47:04;;;;;;;19.10;7.32;;;6.40;78.00;;;;;;6180466;23;19955;-96
2022/03/29 04:49:32;;;;;;;21.38;10.02;;;6.40;78.00;;;;;;6156484;23;20025;-95
2022/03/29 04:51:59;;;;;;;22.00;7.80;;;6.40;78.40;;;;;;6156015;23;20102;-95
2022/03/29 04:54:27;;;;;;;22.15;7.88;;;6.50;78.60;;;;;;6155154;23;20021;-95
2022/03/29 04:56:55;;;;;;;27.48;9.50;;;6.50;78.60;;;;;;6155356;23;20029;-96
2022/03/29 04:59:22;;;;;;;20.63;6.80;;;6.50;78.80;;;;;;6155741;23;20021;-93
2022/03/29 05:01:49;;;;;;;17.48;7.30;;;6.50;78.80;;;;;;6156517;23;20083;-95
2022/03/29 05:04:19;;;;;;;23.25;7.82;;;6.50;79.40;;;;;;6156163;23;20021;-96
2022/03/29 05:06:46;;;;;;;18.58;6.20;;;6.60;78.30;;;;;;6156063;23;20017;-95
2022/03/29 05:09:14;;;;;;;22.75;6.53;;;6.60;78.60;;;;;;6156573;23;20032;-95
2022/03/29 05:11:41;;;;;;;25.95;8.63;;;6.60;78.30;;;;;;6154744;23;20017;-94
2022/03/29 05:14:11;;;;;;;27.50;9.82;;;6.70;78.00;;;;;;6156244;23;20021;-95
2022/03/29 05:16:38;;;;;;;27.50;8.52;;;6.70;77.60;;;;;;6155797;23;20013;-95
2022/03/29 05:19:05;;;;;;;23.48;7.95;;;6.80;77.40;;;;;;6155826;23;20024;-95
2022/03/29 05:21:33;;;;;;;21.65;6.60;;;6.80;77.50;;;;;;6155708;23;20028;-96
2022/03/29 05:24:00;;;;;;;19.63;7.55;;;6.80;77.30;;;;;;6153461;23;20123;-95
2022/03/29 05:26:27;;;;;;;25.65;7.05;;;6.80;77.60;;;;;;6173071;23;20036;-96
2022/03/29 05:28:55;;;;;;;19.85;7.30;;;6.90;79.10;;;;;;6151310;23;20048;-94
2022/03/29 05:31:23;;;;;;;21.00;7.60;;;6.70;79.40;;;;;;6155786;23;20024;-94
2022/03/29 05:33:50;;;;;;;17.50;6.75;;;6.80;79.90;;;;;;6154831;23;20048;-93
2022/03/29 05:36:19;;;;;;;21.35;6.95;;;6.80;80.30;;;;;;6155017;23;20108;-94
2022/03/29 05:38:51;;;;;;;18.27;6.80;;;6.80;81.10;;;;;;6155157;23;20021;-94
2022/03/29 05:41:21;;;;;;;20.15;6.90;;;6.90;81.50;;;;;;6155686;23;20071;-94
2022/03/29 05:43:49;;;;;;;21.77;8.15;;;7.00;81.20;;;;;;6154037;23;20025;-94
2022/03/29 05:49:04;;;;;;;20.25;7.85;;;7.00;81.70;;;;;;6155537;23;20056;-94
2022/03/29 05:51:31;;;;;;;22.50;7.57;;;7.00;81.70;;;;;;6155334;23;20056;-94
2022/03/29 05:54:01;;;;;;;22.90;7.82;;;7.10;81.60;;;;;;6155566;23;20706;-95
2022/03/29 05:56:28;;;;;;;19.33;7.40;;;7.20;81.90;;;;;;6154418;23;20431;-95
2022/03/29 05:58:55;;;;;;;19.50;7.15;;;7.30;81.90;;;;;;6150032;23;20520;-95
2022/03/29 06:01:22;;;;;;;22.80;8.63;;;7.30;82.40;;;;;;6123313;23;20056;-94
2022/03/29 06:03:50;;;;;;;20.20;7.18;;;7.50;82.50;;;;;;6150143;23;20108;-94
2022/03/29 06:06:17;;;;;;;18.50;7.93;;;7.60;82.50;;;;;;6149370;23;20017;-94
2022/03/29 06:08:45;;;;;;;20.67;8.38;;;7.80;82.00;;;;;;6150758;23;20487;-95
2022/03/29 06:11:13;;;;;;;26.60;8.52;;;7.90;82.00;;;;;;6150072;23;20471;-94
2022/03/29 06:13:43;;;;;;;20.20;7.90;;;8.00;81.60;;;;;;6150410;23;20549;-95
2022/03/29 06:16:10;;;;;;;20.90;8.77;;;8.20;82.60;;;;;;6151006;23;20729;-94
2022/03/29 06:18:38;;;;;;;23.15;9.13;;;8.40;82.00;;;;;;6151651;23;20021;-94
2022/03/29 06:21:05;;;;;;;21.67;9.15;;;8.60;82.00;;;;;;6150349;23;20025;-94
2022/03/29 06:23:34;;;;;;;24.33;10.02;;;8.80;81.40;;;;;;6151673;23;20029;-93
2022/03/29 06:26:02;;;;;;;22.42;8.65;;;8.90;80.60;;;;;;6151554;23;20386;-93
2022/03/29 06:28:29;;;;;;;27.33;10.10;;;9.00;80.00;;;;;;6152728;23;20179;-93
2022/03/29 06:30:57;;;;;;;21.67;9.15;;;9.10;80.50;;;;;;6151678;23;20025;-92
2022/03/29 06:33:26;;;;;;;21.95;9.50;;;9.30;79.30;;;;;;6152364;23;20033;-93
2022/03/29 06:35:53;;;;;;;22.80;9.18;;;9.50;78.20;;;;;;6150189;23;20037;-93
2022/03/29 06:38:23;;;;;;;21.52;8.95;;;9.70;78.50;;;;;;6152189;23;20075;-93
2022/03/29 06:40:52;;;;;;;18.85;8.70;;;9.80;77.90;;;;;;6152434;23;20025;-93
2022/03/29 06:43:20;;;;;;;21.42;9.70;;;10.00;77.30;;;;;;6152694;23;20036;-94
2022/03/29 06:45:47;;;;;;;19.58;10.65;;;10.20;76.60;;;;;;6174407;23;20108;-94
2022/03/29 06:48:15;;;;;;;24.48;10.90;;;10.30;76.00;;;;;;6152072;23;20028;-92
2022/03/29 06:50:42;;;;;;;23.17;11.63;;;10.50;75.60;;;;;;6150977;23;20123;-92
2022/03/29 06:53:09;;;;;;;24.05;10.75;;;10.60;75.80;;;;;;6152149;23;20017;-93
2022/03/29 06:55:37;;;;;;;23.58;11.05;;;10.70;73.90;;;;;;6176898;23;20023;-93
2022/03/29 06:58:04;;;;;;;20.70;10.48;;;10.90;74.20;;;;;;6176517;23;20104;-93
2022/03/29 07:00:31;;;;;;;27.67;11.00;;;11.10;73.10;;;;;;6150030;23;20113;-94
2022/03/29 07:02:59;;;;;;;22.75;11.75;;;11.20;72.90;;;;;;6177546;23;20137;-93
2022/03/29 07:05:27;;;;;;;26.50;12.15;;;11.40;72.50;;;;;;6150560;23;20029;-93
2022/03/29 07:07:55;;;;;;;22.17;11.45;;;11.50;72.10;;;;;;6176976;23;20021;-95
2022/03/29 07:13:08;;;;;;;18.23;9.38;;;11.70;71.50;;;;;;6151956;23;20075;-92
2022/03/29 07:15:38;;;;;;;26.58;12.27;;;11.90;70.20;;;;;;6149671;23;20029;-93
2022/03/29 07:18:11;;;;;;;18.48;10.20;;;11.80;70.20;;;;;;6151590;23;20523;-93
2022/03/29 07:20:38;;;;;;;19.55;10.32;;;11.80;70.00;;;;;;6151484;23;20029;-93
2022/03/29 07:23:06;;;;;;;23.75;11.13;;;11.80;69.90;;;;;;6147066;23;20029;-92
2022/03/29 07:25:34;;;;;;;27.30;11.02;;;11.90;71.10;;;;;;6147597;23;20044;-95
2022/03/29 07:28:03;;;;;;;26.02;11.57;;;11.90;69.80;;;;;;6147438;23;20100;-93
2022/03/29 07:30:34;;;;;;;19.13;11.23;;;12.00;69.50;;;;;;6145921;23;20033;-93
2022/03/29 07:33:01;;;;;;;21.15;11.30;;;12.00;69.40;;;;;;6121508;23;20144;-96
2022/03/29 07:35:29;;;;;;;20.48;10.70;;;12.20;69.10;;;;;;6143574;23;20021;-92
2022/03/29 07:38:00;;;;;;;22.83;10.70;;;12.30;68.40;;;;;;6145905;23;20025;-94
2022/03/29 07:40:29;;;;;;;23.90;11.73;;;12.50;68.00;;;;;;6145921;23;20025;-92
2022/03/29 07:42:59;;;;;;;21.27;10.80;;;12.60;67.90;;;;;;6120461;23;20021;-93
2022/03/29 07:45:27;;;;;;;20.60;11.52;;;12.70;67.70;;;;;;6122621;23;20475;-93
2022/03/29 07:47:56;;;;;;;29.15;11.48;;;12.80;66.80;;;;;;6147029;23;20025;-94
2022/03/29 07:50:43;;;;;;;23.73;11.93;;;13.00;67.00;;;;;;6143905;23;20021;-93
2022/03/29 07:53:11;;;;;;;23.00;11.75;;;13.20;65.30;;;;;;6142928;23;20025;-94
2022/03/29 07:55:40;;;;;;;22.73;12.02;;;13.30;65.80;;;;;;6145361;23;20025;-93
2022/03/29 07:58:14;;;;;;;25.70;11.55;;;13.40;66.40;;;;;;6144982;23;20548;-93
2022/03/29 08:00:41;;;;;;;24.25;12.15;;;13.60;64.70;;;;;;6143055;23;20108;-93
2022/03/29 08:03:11;;;;;;;27.65;11.88;;;13.70;64.40;;;;;;6144636;23;20025;-92
2022/03/29 08:05:44;;;;;;;25.92;12.57;;;14.00;64.90;;;;;;6121463;23;20384;-92
2022/03/29 08:08:13;;;;;;;21.70;11.82;;;14.10;63.10;;;;;;6142703;23;20076;-91
2022/03/29 08:10:46;;;;;;;22.10;11.73;;;14.20;62.70;;;;;;6145194;23;20022;-91
2022/03/29 08:13:15;;;;;;;29.42;13.15;;;14.30;62.60;;;;;;6141090;23;20519;-92
2022/03/29 08:15:44;;;;;;;20.85;11.75;;;14.40;62.40;;;;;;6143674;23;20523;-92
2022/03/29 08:18:12;;;;;;;20.80;12.25;;;14.40;62.00;;;;;;6145502;23;20452;-91
2022/03/29 08:20:40;;;;;;;28.55;12.82;;;14.40;62.70;;;;;;6145513;23;20403;-89
2022/03/29 08:23:09;;;;;;;22.05;12.40;;;14.60;62.70;;;;;;6145011;23;20124;-92
2022/03/29 08:25:39;;;;;;;24.95;13.23;;;14.60;62.00;;;;;;6145469;23;20021;-91
2022/03/29 08:28:07;;;;;;;22.50;12.25;;;14.80;61.90;;;;;;6146092;23;20088;-92
2022/03/29 08:30:36;;;;;;;25.13;12.27;;;14.90;62.20;;;;;;6120088;23;20023;-92
2022/03/29 08:33:04;;;;;;;26.40;11.85;;;15.00;60.70;;;;;;6143070;23;20025;-91
2022/03/29 08:35:33;;;;;;;26.75;13.57;;;15.20;61.80;;;;;;6144537;23;20021;-91
2022/03/29 08:38:01;;;;;;;24.45;12.23;;;15.30;60.50;;;;;;6144553;23;20531;-92
2022/03/29 08:40:51;;;;;;;22.30;12.27;;;15.60;60.30;;;;;;6123360;23;20074;-91
2022/03/29 08:43:19;;;;;;;23.02;11.57;;;15.70;59.30;;;;;;6144203;23;20032;-92
2022/03/29 08:45:49;;;;;;;22.65;12.68;;;15.80;59.10;;;;;;6145580;23;20052;-93
2022/03/29 08:48:17;;;;;;;52.75;35.00;;;15.90;59.40;;;;;;6141892;23;20025;-92
2022/03/29 08:50:46;;;;;;;35.13;22.98;;;16.10;58.70;;;;;;6143409;23;20029;-92
2022/03/29 08:53:17;;;;;;;24.92;13.07;;;16.30;56.50;;;;;;6141017;23;20052;-92
2022/03/29 08:55:45;;;;;;;23.92;13.25;;;16.50;57.80;;;;;;6142623;23;20029;-92
2022/03/29 08:58:13;;;;;;;25.77;13.23;;;16.70;56.70;;;;;;6145816;23;20079;-93
2022/03/29 09:00:42;;;;;;;26.17;12.95;;;16.70;55.80;;;;;;6144105;23;20017;-92
2022/03/29 09:03:11;;;;;;;24.65;14.07;;;16.70;56.70;;;;;;6146245;23;20096;-94
2022/03/29 09:05:39;;;;;;;22.67;12.45;;;16.80;55.10;;;;;;6144381;23;20025;-92
2022/03/29 09:08:11;;;;;;;35.67;20.48;;;17.00;55.70;;;;;;6142234;23;20044;-93
2022/03/29 09:10:45;;;;;;;28.73;13.27;;;17.20;54.80;;;;;;6131443;23;20022;-92
2022/03/29 09:13:27;;;;;;;23.23;12.57;;;17.20;55.30;;;;;;6136304;23;20021;-93
2022/03/29 09:16:01;;;;;;;26.75;12.00;;;17.30;54.80;;;;;;6134809;23;20467;-95
2022/03/29 09:18:30;;;;;;;23.63;12.98;;;17.20;55.10;;;;;;6132955;23;20073;-93
2022/03/29 09:21:08;;;;;;;27.80;14.45;;;17.30;55.10;;;;;;6135133;23;20025;-93
2022/03/29 09:23:41;;;;;;;22.55;11.55;;;17.50;53.80;;;;;;6160457;23;20031;-92
2022/03/29 09:26:26;;;;;;;21.27;11.02;;;17.50;54.70;;;;;;6131682;23;20032;-91
2022/03/29 09:28:54;;;;;;;25.05;12.48;;;17.70;53.40;;;;;;6135623;23;20021;-93
2022/03/29 09:31:25;;;;;;;29.35;13.10;;;17.90;51.60;;;;;;6115943;23;20017;-93
2022/03/29 09:34:20;;;;;;;44.83;22.80;;;18.00;51.30;;;;;;6139962;23;20075;-93
2022/03/29 09:36:51;;;;;;;25.77;13.10;;;18.20;51.10;;;;;;6140132;23;20017;-92
2022/03/29 09:39:34;;;;;;;24.52;11.43;;;18.50;49.50;;;;;;6144446;23;20032;-93
2022/03/29 09:42:06;;;;;;;28.90;13.30;;;18.50;49.40;;;;;;6143160;23;20021;-94
2022/03/29 09:44:42;;;;;;;32.97;15.00;;;18.70;49.10;;;;;;6143488;23;20031;-92
2022/03/29 09:47:13;;;;;;;26.02;11.23;;;19.00;48.40;;;;;;6144525;23;20040;-95
2022/03/29 09:49:55;;;;;;;26.52;13.57;;;18.90;48.50;;;;;;6139478;23;20437;-93
2022/03/29 09:52:25;;;;;;;23.88;11.50;;;18.80;47.60;;;;;;6140822;23;20025;-93
2022/03/29 09:55:17;;;;;;;23.40;11.43;;;18.70;47.70;;;;;;6139536;23;20025;-92
2022/03/29 09:57:49;;;;;;;27.80;10.73;;;18.80;48.60;;;;;;6142223;23;20523;-93
2022/03/29 10:00:36;;;;;;;22.85;11.07;;;18.70;48.50;;;;;;6142605;23;20136;-93
2022/03/29 10:03:08;;;;;;;23.67;12.00;;;18.80;48.30;;;;;;6139401;23;20468;-93
2022/03/29 10:05:39;;;;;;;23.65;10.60;;;19.10;48.50;;;;;;6139017;23;20022;-93
2022/03/29 10:11:03;;;;;;;23.15;12.05;;;19.20;48.10;;;;;;6137233;23;20562;-92
2022/03/29 10:13:36;;;;;;;23.60;11.85;;;19.20;47.90;;;;;;6140268;23;20033;-92
2022/03/29 10:16:04;;;;;;;19.50;11.25;;;19.20;47.20;;;;;;6112221;23;20021;-93
2022/03/29 10:18:32;;;;;;;21.83;10.90;;;19.20;47.10;;;;;;6144655;23;20076;-93
2022/03/29 10:21:01;;;;;;;21.45;10.40;;;19.20;48.30;;;;;;6143437;23;20029;-93
2022/03/29 10:23:30;;;;;;;18.83;10.05;;;19.20;48.00;;;;;;6140080;23;20122;-94
2022/03/29 10:26:00;;;;;;;29.27;11.25;;;19.00;47.80;;;;;;6140701;23;20021;-93
2022/03/29 10:28:29;;;;;;;18.17;9.10;;;18.90;48.20;;;;;;6139838;23;20026;-93
2022/03/29 10:30:57;;;;;;;26.40;11.75;;;19.00;48.20;;;;;;6143837;23;20021;-92
2022/03/29 10:33:30;;;;;;;18.13;9.00;;;19.40;47.30;;;;;;6122041;23;20024;-93
2022/03/29 10:36:02;;;;;;;;;;;19.80;46.40;;;;;;6146840;23;20026;-93
2022/03/29 10:38:44;;;;;;;23.63;9.60;;;20.00;46.40;;;;;;6171655;23;19920;-94
2022/03/29 10:41:29;;;;;;;18.65;9.07;;;20.10;45.80;;;;;;6144864;23;20022;-93
2022/03/29 10:44:05;;;;;;;19.58;9.15;;;20.00;46.30;;;;;;6145031;23;20031;-92
2022/03/29 10:46:49;;;;;;;20.33;9.35;;;20.00;46.40;;;;;;6115631;23;20032;-92
2022/03/29 10:49:20;;;;;;;22.30;9.63;;;20.10;46.10;;;;;;6093730;23;20922;-94
2022/03/29 10:51:50;;;;;;;22.15;9.82;;;20.10;44.80;;;;;;6083886;23;20044;-94
2022/03/29 10:54:31;;;;;;;26.80;10.00;;;20.30;44.90;;;;;;6089774;23;20025;-93
2022/03/29 10:57:03;;;;;;;21.35;9.35;;;20.40;45.30;;;;;;6091086;23;20037;-94
2022/03/29 10:59:32;;;;;;;18.08;9.02;;;20.30;43.80;;;;;;6091522;23;20022;-93
2022/03/29 11:02:14;;;;;;;21.83;9.88;;;20.40;44.60;;;;;;6086742;23;20512;-92
2022/03/29 11:05:04;;;;;;;17.13;8.83;;;20.50;44.40;;;;;;6091393;23;20076;-93
2022/03/29 11:07:35;;;;;;;20.58;10.43;;;20.70;43.50;;;;;;6092133;23;20267;-94
2022/03/29 11:10:19;;;;;;;15.35;9.43;;;20.80;42.40;;;;;;6089142;23;20073;-93
2022/03/29 11:12:49;;;;;;;21.52;10.35;;;20.80;42.20;;;;;;6091954;23;20036;-94
2022/03/29 11:15:36;;;;;;;17.58;9.30;;;20.80;41.60;;;;;;6118325;23;20025;-95
2022/03/29 11:18:30;;;;;;;20.20;9.60;;;21.10;41.50;;;;;;6134766;23;20021;-93
2022/03/29 11:21:03;;;;;;;19.90;9.48;;;21.40;41.50;;;;;;6142212;23;20260;-94
2022/03/29 11:23:33;;;;;;;21.65;10.25;;;21.40;40.30;;;;;;6144477;23;20025;-93
2022/03/29 11:26:06;;;;;;;24.02;10.65;;;21.40;41.00;;;;;;6144029;23;20021;-92
2022/03/29 11:28:33;;;;;;;20.35;11.40;;;21.70;40.50;;;;;;6116923;23;20032;-92
2022/03/29 11:31:00;;;;;;;20.23;9.98;;;21.50;39.40;;;;;;6143068;23;20021;-93
2022/03/29 11:33:33;;;;;;;18.08;9.73;;;21.40;40.70;;;;;;6142877;23;20049;-94
2022/03/29 11:36:05;;;;;;;21.88;9.90;;;21.60;40.00;;;;;;6142424;23;20895;-92
2022/03/29 11:38:36;;;;;;;23.58;10.23;;;21.70;40.10;;;;;;6143168;23;20028;-94
2022/03/29 11:41:04;;;;;;;21.60;9.77;;;21.70;40.40;;;;;;6142103;23;20059;-94
2022/03/29 11:43:32;;;;;;;22.15;9.88;;;21.70;39.60;;;;;;6145322;23;20052;-93
2022/03/29 11:46:00;;;;;;;22.85;10.88;;;21.80;40.10;;;;;;6142928;23;20064;-93
2022/03/29 11:48:27;;;;;;;23.13;9.18;;;21.90;40.70;;;;;;6143598;23;20771;-93
2022/03/29 11:50:57;;;;;;;19.75;9.15;;;21.80;39.90;;;;;;6140760;23;20465;-92
2022/03/29 11:53:30;;;;;;;20.08;9.98;;;22.30;41.10;;;;;;6143398;23;20527;-93
2022/03/29 11:56:01;;;;;;;21.52;10.00;;;22.10;39.70;;;;;;6139428;23;20120;-92
2022/03/29 11:58:37;;;;;;;20.25;10.63;;;22.10;40.10;;;;;;6139198;23;20746;-93
2022/03/29 12:01:05;;;;;;;21.30;9.93;;;22.00;39.20;;;;;;6140294;23;20021;-95
2022/03/29 12:03:34;;;;;;;18.00;9.35;;;21.90;39.60;;;;;;6140980;23;20021;-93
2022/03/29 12:06:05;;;;;;;16.17;9.55;;;22.20;40.40;;;;;;6142016;23;20033;-93
2022/03/29 12:09:06;;;;;;;21.20;9.65;;;22.30;39.40;;;;;;6141285;23;20021;-92
2022/03/29 12:11:39;;;;;;;20.38;10.18;;;22.30;39.80;;;;;;6125443;23;20025;-93
2022/03/29 12:14:10;;;;;;;22.23;9.90;;;22.40;39.50;;;;;;6145138;23;20025;-92
2022/03/29 12:16:49;;;;;;;17.77;8.98;;;22.50;38.40;;;;;;6120981;23;20483;-94
2022/03/29 12:19:28;;;;;;;18.58;9.65;;;22.70;38.90;;;;;;6143228;23;20053;-91
2022/03/29 12:22:07;;;;;;;19.17;9.80;;;22.70;38.00;;;;;;6140389;23;20056;-94
2022/03/29 12:24:42;;;;;;;22.27;10.23;;;22.70;37.70;;;;;;6140613;23;20021;-93
2022/03/29 12:27:14;;;;;;;21.45;10.25;;;22.50;37.50;;;;;;6142201;23;20460;-94
2022/03/29 12:29:57;;;;;;;18.97;8.73;;;22.50;39.00;;;;;;6141165;23;20128;-94
2022/03/29 12:32:25;;;;;;;20.30;9.52;;;22.80;37.30;;;;;;6142823;23;20623;-92
2022/03/29 12:35:03;;;;;;;20.85;9.85;;;22.80;37.00;;;;;;6143055;23;20104;-95
2022/03/29 12:37:31;;;;;;;21.92;10.10;;;22.80;36.70;;;;;;6144501;23;20018;-94
2022/03/29 12:40:04;;;;;;;15.57;8.75;;;22.30;36.70;;;;;;6139927;23;20018;-93
2022/03/29 12:42:34;;;;;;;23.52;9.25;;;22.70;36.70;;;;;;6139679;23;20033;-92
2022/03/29 12:45:07;;;;;;;23.13;10.38;;;22.80;37.40;;;;;;6143811;23;20458;-93
2022/03/29 12:47:36;;;;;;;17.75;8.90;;;22.60;37.30;;;;;;6141297;23;20032;-93
2022/03/29 12:50:05;;;;;;;26.13;9.57;;;22.70;36.90;;;;;;6142428;23;20025;-93
2022/03/29 12:52:41;;;;;;;18.67;9.10;;;22.50;36.60;;;;;;6143632;23;20021;-94
2022/03/29 12:55:18;;;;;;;19.15;9.13;;;22.50;36.90;;;;;;6144048;23;20034;-93
2022/03/29 12:57:46;;;;;;;17.85;9.00;;;22.50;35.50;;;;;;6145305;23;20448;-94
2022/03/29 13:00:16;;;;;;;17.67;9.40;;;22.30;36.70;;;;;;6146155;23;20025;-93
2022/03/29 13:02:49;;;;;;;16.77;8.77;;;22.20;36.40;;;;;;6118147;23;20017;-93
2022/03/29 13:05:23;;;;;;;17.55;9.30;;;22.10;36.10;;;;;;6143910;23;20029;-93